createdAt,value
2022-10-17T00:00:39.187Z,14.40
2022-10-17T00:03:05.972Z,14.40
2022-10-17T00:05:32.747Z,14.40
2022-10-17T00:07:59.993Z,14.40
2022-10-17T00:10:26.757Z,14.40
2022-10-17T00:12:53.683Z,14.40
2022-10-17T00:15:22.347Z,14.40
2022-10-17T00:17:49.323Z,14.40
2022-10-17T00:20:16.416Z,14.40
2022-10-17T00:22:43.428Z,14.30
2022-10-17T00:25:10.655Z,14.30
2022-10-17T00:27:41.687Z,14.30
2022-10-17T00:30:12.998Z,14.30
2022-10-17T00:32:40.267Z,14.30
2022-10-17T00:35:07.395Z,14.30
2022-10-17T00:37:34.533Z,14.30
2022-10-17T00:40:01.252Z,14.30
2022-10-17T00:42:28.927Z,14.30
2022-10-17T00:45:08.259Z,14.30
2022-10-17T00:47:36.916Z,14.30
2022-10-17T00:50:05.806Z,14.30
2022-10-17T00:52:32.988Z,14.30
2022-10-17T00:55:25.236Z,14.40
2022-10-17T00:57:52.778Z,14.40
2022-10-17T01:00:20.151Z,14.40
2022-10-17T01:02:47.619Z,14.40
2022-10-17T01:05:15.745Z,14.40
2022-10-17T01:07:43.936Z,14.40
2022-10-17T01:10:11.900Z,14.40
2022-10-17T01:13:01.230Z,14.40
2022-10-17T01:15:36.921Z,14.40
2022-10-17T01:18:28.717Z,14.40
2022-10-17T01:21:16.580Z,14.40
2022-10-17T01:24:16.358Z,14.40
2022-10-17T01:27:23.194Z,14.40
2022-10-17T01:30:00.426Z,14.30
2022-10-17T01:32:47.051Z,14.30
2022-10-17T01:35:23.000Z,14.30
2022-10-17T01:38:09.077Z,14.30
2022-10-17T01:40:48.481Z,14.30
2022-10-17T01:43:18.687Z,14.30
2022-10-17T01:45:52.279Z,14.30
2022-10-17T01:48:25.418Z,14.30
2022-10-17T01:50:54.406Z,14.30
2022-10-17T01:53:38.649Z,14.30
2022-10-17T01:56:08.501Z,14.30
2022-10-17T01:58:44.211Z,14.30
2022-10-17T02:01:12.795Z,14.30
2022-10-17T02:03:43.217Z,14.20
2022-10-17T02:06:09.925Z,14.20
2022-10-17T02:08:44.266Z,14.30
2022-10-17T02:11:18.725Z,14.30
2022-10-17T02:14:03.966Z,14.30
2022-10-17T02:16:35.372Z,14.20
2022-10-17T02:19:09.730Z,14.30
2022-10-17T02:21:50.911Z,14.30
2022-10-17T02:24:44.185Z,14.30
2022-10-17T02:27:56.160Z,14.30
2022-10-17T02:30:47.299Z,14.30
2022-10-17T02:33:20.636Z,14.30
2022-10-17T02:35:52.152Z,14.30
2022-10-17T02:38:21.600Z,14.30
2022-10-17T02:40:51.352Z,14.30
2022-10-17T02:43:19.724Z,14.30
2022-10-17T02:45:47.460Z,14.30
2022-10-17T02:48:53.403Z,14.30
2022-10-17T02:51:49.549Z,14.30
2022-10-17T02:54:24.544Z,14.30
2022-10-17T02:56:55.573Z,14.50
2022-10-17T02:59:25.337Z,14.60
2022-10-17T03:01:52.509Z,14.70
2022-10-17T03:04:20.031Z,14.70
2022-10-17T03:06:48.616Z,14.90
2022-10-17T03:09:16.096Z,14.90
2022-10-17T03:11:42.909Z,15.00
2022-10-17T03:14:09.801Z,15.00
2022-10-17T03:16:36.698Z,15.10
2022-10-17T03:19:04.692Z,15.10
2022-10-17T03:21:32.204Z,15.10
2022-10-17T03:23:58.980Z,15.20
2022-10-17T03:26:25.754Z,15.20
2022-10-17T03:28:54.525Z,15.20
2022-10-17T03:31:22.741Z,15.20
2022-10-17T03:33:50.458Z,15.20
2022-10-17T03:36:19.092Z,15.20
2022-10-17T03:38:47.305Z,15.20
2022-10-17T03:41:14.339Z,15.20
2022-10-17T03:43:41.084Z,15.20
2022-10-17T03:46:08.535Z,15.20
2022-10-17T03:48:36.380Z,15.20
2022-10-17T03:51:06.748Z,15.20
2022-10-17T03:53:37.401Z,15.20
2022-10-17T03:56:15.510Z,15.20
2022-10-17T03:58:43.504Z,15.20
2022-10-17T04:01:13.332Z,15.20
2022-10-17T04:03:40.709Z,15.20
2022-10-17T04:06:08.075Z,15.20
2022-10-17T04:08:36.807Z,15.20
2022-10-17T04:11:16.286Z,15.20
2022-10-17T04:13:44.073Z,15.20
2022-10-17T04:16:15.191Z,15.20
2022-10-17T04:18:55.341Z,15.20
2022-10-17T04:21:25.734Z,15.10
2022-10-17T04:23:56.975Z,15.20
2022-10-17T04:26:40.169Z,15.20
2022-10-17T04:29:06.918Z,15.20
2022-10-17T04:31:33.830Z,15.20
2022-10-17T04:34:20.804Z,15.20
2022-10-17T04:36:47.750Z,15.20
2022-10-17T04:39:15.060Z,15.20
2022-10-17T04:41:42.317Z,15.20
2022-10-17T04:44:10.752Z,15.20
2022-10-17T04:46:41.150Z,15.20
2022-10-17T04:49:09.020Z,15.20
2022-10-17T04:51:38.347Z,15.30
2022-10-17T04:54:16.425Z,15.30
2022-10-17T04:56:47.113Z,15.30
2022-10-17T04:59:13.848Z,15.30
2022-10-17T05:01:42.872Z,15.30
2022-10-17T05:04:09.718Z,15.40
2022-10-17T05:06:37.800Z,15.40
2022-10-17T05:09:32.515Z,15.40
2022-10-17T05:11:59.211Z,15.40
2022-10-17T05:14:27.117Z,15.50
2022-10-17T05:16:53.858Z,15.40
2022-10-17T05:19:20.523Z,15.40
2022-10-17T05:21:49.878Z,15.40
2022-10-17T05:24:16.687Z,15.50
2022-10-17T05:26:43.476Z,15.50
2022-10-17T05:29:10.423Z,15.50
2022-10-17T05:31:42.037Z,15.50
2022-10-17T05:34:11.537Z,15.50
2022-10-17T05:36:41.148Z,15.50
2022-10-17T05:39:08.926Z,15.50
2022-10-17T05:41:37.241Z,15.50
2022-10-17T05:44:05.743Z,15.50
2022-10-17T05:46:42.445Z,15.60
2022-10-17T05:49:19.715Z,15.60
2022-10-17T05:51:57.583Z,15.60
2022-10-17T05:54:25.373Z,15.60
2022-10-17T05:56:56.543Z,15.50
2022-10-17T05:59:27.775Z,15.50
2022-10-17T06:02:02.834Z,15.60
2022-10-17T06:04:30.304Z,15.50
2022-10-17T06:06:57.425Z,15.60
2022-10-17T06:09:24.379Z,15.60
2022-10-17T06:11:53.813Z,15.50
2022-10-17T06:14:20.881Z,15.50
2022-10-17T06:16:52.800Z,15.50
2022-10-17T06:19:21.226Z,15.50
2022-10-17T06:21:48.210Z,15.60
2022-10-17T06:24:20.237Z,15.60
2022-10-17T06:26:47.890Z,15.50
2022-10-17T06:29:16.028Z,15.50
2022-10-17T06:31:46.876Z,15.50
2022-10-17T06:34:13.747Z,15.60
2022-10-17T06:36:41.521Z,15.60
2022-10-17T06:39:09.573Z,15.60
2022-10-17T06:41:41.920Z,15.60
2022-10-17T06:44:11.195Z,15.70
2022-10-17T06:46:56.752Z,15.60
2022-10-17T06:49:23.420Z,15.60
2022-10-17T06:52:10.345Z,15.70
2022-10-17T06:54:47.960Z,15.70
2022-10-17T06:57:37.780Z,15.80
2022-10-17T07:00:26.771Z,15.80
2022-10-17T07:02:56.175Z,15.80
2022-10-17T07:05:23.347Z,15.80
2022-10-17T07:07:51.838Z,15.80
2022-10-17T07:10:19.188Z,15.80
2022-10-17T07:12:46.024Z,15.80
2022-10-17T07:15:13.228Z,15.80
2022-10-17T07:17:40.158Z,15.90
2022-10-17T07:20:07.478Z,15.90
2022-10-17T07:22:36.108Z,15.90
2022-10-17T07:25:02.844Z,15.90
2022-10-17T07:27:34.631Z,15.90
2022-10-17T07:30:01.825Z,15.90
2022-10-17T07:32:38.033Z,15.90
2022-10-17T07:35:06.075Z,15.90
2022-10-17T07:37:33.490Z,15.90
2022-10-17T07:40:00.486Z,15.90
2022-10-17T07:42:28.383Z,15.90
2022-10-17T07:44:55.384Z,15.90
2022-10-17T07:47:23.242Z,16.00
2022-10-17T07:49:50.784Z,16.00
2022-10-17T07:52:17.885Z,16.00
2022-10-17T07:54:44.710Z,16.00
2022-10-17T07:57:11.442Z,16.00
2022-10-17T07:59:38.511Z,16.00
2022-10-17T08:02:05.467Z,16.00
2022-10-17T08:04:32.175Z,16.00
2022-10-17T08:07:18.299Z,16.00
2022-10-17T08:09:47.732Z,16.00
2022-10-17T08:12:15.212Z,16.10
2022-10-17T08:14:42.788Z,16.00
2022-10-17T08:17:09.875Z,16.00
2022-10-17T08:19:40.425Z,16.00
2022-10-17T08:22:07.549Z,16.00
2022-10-17T08:24:34.271Z,16.00
2022-10-17T08:27:01.125Z,16.00
2022-10-17T08:29:28.043Z,15.90
2022-10-17T08:32:00.863Z,16.00
2022-10-17T08:34:27.708Z,16.00
2022-10-17T08:36:54.442Z,16.00
2022-10-17T08:39:21.169Z,16.00
2022-10-17T08:41:50.642Z,16.00
2022-10-17T08:44:57.689Z,16.10
2022-10-17T08:47:34.070Z,16.10
2022-10-17T08:50:04.482Z,16.10
2022-10-17T08:52:39.752Z,16.20
2022-10-17T08:55:24.544Z,16.20
2022-10-17T08:57:51.193Z,16.20
2022-10-17T09:00:20.986Z,16.20
2022-10-17T09:02:53.376Z,16.20
2022-10-17T09:05:37.239Z,16.20
2022-10-17T09:08:21.633Z,16.20
2022-10-17T09:10:50.989Z,16.20
2022-10-17T09:13:20.435Z,16.20
2022-10-17T09:16:08.887Z,16.20
2022-10-17T09:18:42.292Z,16.30
2022-10-17T09:21:36.208Z,16.30
2022-10-17T09:24:15.715Z,16.30
2022-10-17T09:26:45.704Z,16.30
2022-10-17T09:29:21.424Z,16.30
2022-10-17T09:32:03.437Z,16.30
2022-10-17T09:34:32.456Z,16.30
2022-10-17T09:37:00.885Z,16.30
2022-10-17T09:39:31.933Z,16.30
2022-10-17T09:42:01.275Z,16.30
2022-10-17T09:44:32.468Z,16.30
2022-10-17T09:47:26.847Z,16.30
2022-10-17T09:49:53.869Z,16.30
2022-10-17T09:52:47.420Z,16.30
2022-10-17T09:55:37.911Z,16.40
2022-10-17T09:58:06.937Z,16.40
2022-10-17T10:00:47.480Z,16.40
2022-10-17T10:03:18.816Z,16.40
2022-10-17T10:06:00.708Z,16.40
2022-10-17T10:08:32.164Z,16.50
2022-10-17T10:11:03.249Z,16.50
2022-10-17T10:13:31.804Z,16.50
2022-10-17T10:16:24.336Z,16.50
2022-10-17T10:18:51.482Z,16.50
2022-10-17T10:21:26.498Z,16.50
2022-10-17T10:24:08.427Z,16.50
2022-10-17T10:26:42.598Z,16.50
2022-10-17T10:29:24.119Z,16.60
2022-10-17T10:31:52.108Z,16.60
2022-10-17T10:34:23.323Z,16.50
2022-10-17T10:36:52.403Z,16.50
2022-10-17T10:39:49.934Z,16.60
2022-10-17T10:42:38.778Z,16.60
2022-10-17T10:45:46.534Z,16.60
2022-10-17T10:48:14.603Z,16.60
2022-10-17T10:50:46.611Z,16.50
2022-10-17T10:53:35.589Z,16.60
2022-10-17T10:56:22.984Z,16.60
2022-10-17T10:59:00.622Z,16.60
2022-10-17T11:01:43.896Z,16.60
2022-10-17T11:04:35.791Z,16.60
2022-10-17T11:07:08.332Z,16.60
2022-10-17T11:09:42.726Z,16.60
2022-10-17T11:12:25.611Z,16.60
2022-10-17T11:14:52.258Z,16.60
2022-10-17T11:17:43.097Z,16.60
2022-10-17T11:20:09.717Z,16.70
2022-10-17T11:22:42.123Z,16.70
2022-10-17T11:25:11.724Z,16.70
2022-10-17T11:27:38.567Z,16.70
2022-10-17T11:30:06.225Z,16.70
2022-10-17T11:32:51.803Z,16.70
2022-10-17T11:35:27.933Z,16.70
2022-10-17T11:38:26.568Z,16.70
2022-10-17T11:40:57.622Z,16.70
2022-10-17T11:43:58.441Z,16.70
2022-10-17T11:46:28.290Z,16.70
2022-10-17T11:49:12.394Z,16.70
2022-10-17T11:52:06.106Z,16.70
2022-10-17T11:54:42.203Z,16.70
2022-10-17T11:57:42.477Z,16.80
2022-10-17T12:00:22.687Z,16.80
2022-10-17T12:03:11.986Z,16.80
2022-10-17T12:06:13.471Z,16.90
2022-10-17T12:08:49.658Z,16.90
2022-10-17T12:11:42.677Z,16.90
2022-10-17T12:14:40.108Z,17.00
2022-10-17T12:17:25.887Z,17.00
2022-10-17T12:19:52.727Z,17.00
2022-10-17T12:22:22.891Z,17.00
2022-10-17T12:24:57.404Z,17.10
2022-10-17T12:27:38.591Z,17.10
2022-10-17T12:30:16.239Z,17.10
2022-10-17T12:33:19.074Z,17.10
2022-10-17T12:35:45.713Z,17.10
2022-10-17T12:38:18.435Z,17.10
2022-10-17T12:40:49.109Z,17.10
2022-10-17T12:43:15.905Z,17.10
2022-10-17T12:45:51.642Z,17.10
2022-10-17T12:48:36.538Z,17.10
2022-10-17T12:51:34.948Z,17.10
2022-10-17T12:54:12.106Z,17.10
2022-10-17T12:56:42.119Z,17.10
2022-10-17T12:59:16.750Z,17.10
2022-10-17T13:01:48.811Z,17.00
2022-10-17T13:04:15.770Z,17.00
2022-10-17T13:06:54.233Z,17.00
2022-10-17T13:09:25.007Z,17.00
2022-10-17T13:11:53.087Z,17.00
2022-10-17T13:14:22.448Z,17.10
2022-10-17T13:17:01.979Z,17.10
2022-10-17T13:19:45.491Z,17.10
2022-10-17T13:22:17.156Z,17.10
2022-10-17T13:24:43.998Z,17.10
2022-10-17T13:27:31.403Z,17.10
2022-10-17T13:30:00.152Z,17.20
2022-10-17T13:32:37.557Z,17.20
2022-10-17T13:35:13.848Z,17.20
2022-10-17T13:37:42.963Z,17.20
2022-10-17T13:43:17.764Z,17.30
2022-10-17T13:45:51.451Z,17.30
2022-10-17T13:48:24.827Z,17.30
2022-10-17T13:51:02.774Z,17.30
2022-10-17T13:53:35.575Z,17.30
2022-10-17T13:56:23.259Z,17.30
2022-10-17T13:58:53.930Z,17.20
2022-10-17T14:01:21.596Z,17.20
2022-10-17T14:03:57.049Z,17.20
2022-10-17T14:06:31.317Z,17.20
2022-10-17T14:08:59.729Z,17.30
2022-10-17T14:11:29.953Z,17.30
2022-10-17T14:13:58.096Z,17.30
2022-10-17T14:16:27.448Z,17.30
2022-10-17T14:18:55.393Z,17.30
2022-10-17T14:21:43.290Z,17.30
2022-10-17T14:24:29.672Z,17.30
2022-10-17T14:26:59.056Z,17.30
2022-10-17T14:29:49.783Z,17.30
2022-10-17T14:32:18.608Z,17.30
2022-10-17T14:34:46.820Z,17.30
2022-10-17T14:37:24.074Z,17.30
2022-10-17T14:39:51.661Z,17.30
2022-10-17T14:42:20.767Z,17.30
2022-10-17T14:44:52.279Z,17.40
2022-10-17T14:47:42.743Z,17.40
2022-10-17T14:50:10.479Z,17.50
2022-10-17T14:52:39.157Z,17.50
2022-10-17T14:55:24.702Z,17.50
2022-10-17T14:57:51.804Z,17.50
2022-10-17T15:00:20.823Z,17.50
2022-10-17T15:02:48.603Z,17.50
2022-10-17T15:05:16.442Z,17.50
2022-10-17T15:07:43.655Z,17.40
2022-10-17T15:10:24.674Z,17.40
2022-10-17T15:12:57.495Z,17.40
2022-10-17T15:15:26.567Z,17.40
2022-10-17T15:17:53.896Z,17.40
2022-10-17T15:20:26.044Z,17.40
2022-10-17T15:22:53.394Z,17.40
2022-10-17T15:25:20.460Z,17.40
2022-10-17T15:27:47.184Z,17.40
2022-10-17T15:30:24.182Z,17.40
2022-10-17T15:32:51.563Z,17.50
2022-10-17T15:35:19.146Z,17.40
2022-10-17T15:37:49.147Z,17.40
2022-10-17T15:40:24.419Z,17.40
2022-10-17T15:42:51.643Z,17.40
2022-10-17T15:45:21.937Z,17.40
2022-10-17T15:47:58.540Z,17.40
2022-10-17T15:50:25.203Z,17.30
2022-10-17T15:52:52.212Z,17.30
2022-10-17T15:55:19.506Z,17.30
2022-10-17T15:57:47.915Z,17.30
2022-10-17T16:00:24.223Z,17.20
2022-10-17T16:02:51.243Z,17.20
2022-10-17T16:05:23.001Z,17.20
2022-10-17T16:07:50.259Z,17.10
2022-10-17T16:10:17.580Z,17.10
2022-10-17T16:12:45.148Z,17.00
2022-10-17T16:15:26.469Z,17.00
2022-10-17T16:17:54.685Z,17.00
2022-10-17T16:20:22.728Z,17.00
2022-10-17T16:22:50.191Z,16.90
2022-10-17T16:25:23.767Z,16.90
2022-10-17T16:27:55.536Z,16.90
2022-10-17T16:30:23.727Z,16.80
2022-10-17T16:32:51.382Z,16.80
2022-10-17T16:35:23.394Z,16.80
2022-10-17T16:37:50.441Z,16.70
2022-10-17T16:40:17.787Z,16.70
2022-10-17T16:42:45.530Z,16.70
2022-10-17T16:45:21.098Z,16.60
2022-10-17T16:47:49.196Z,16.60
2022-10-17T16:50:16.328Z,16.60
2022-10-17T16:52:43.759Z,16.60
2022-10-17T16:55:10.834Z,16.60
2022-10-17T16:57:37.785Z,16.50
2022-10-17T17:00:06.404Z,16.50
2022-10-17T17:02:33.592Z,16.50
2022-10-17T17:05:00.581Z,16.50
2022-10-17T17:07:29.533Z,16.50
2022-10-17T17:09:56.855Z,16.50
2022-10-17T17:12:23.805Z,16.40
2022-10-17T17:14:50.814Z,16.40
2022-10-17T17:17:30.315Z,16.40
2022-10-17T17:20:06.246Z,16.30
2022-10-17T17:22:32.971Z,16.30
2022-10-17T17:24:59.606Z,16.30
2022-10-17T17:27:28.809Z,16.30
2022-10-17T17:29:55.712Z,16.30
2022-10-17T17:32:22.407Z,16.30
2022-10-17T17:34:49.132Z,16.20
2022-10-17T17:37:15.798Z,16.20
2022-10-17T17:39:42.984Z,16.20
2022-10-17T17:42:09.823Z,16.20
2022-10-17T17:44:36.636Z,16.20
2022-10-17T17:47:03.348Z,16.20
2022-10-17T17:49:29.971Z,16.20
2022-10-17T17:51:56.758Z,16.20
2022-10-17T17:54:23.505Z,16.20
2022-10-17T17:56:50.284Z,16.20
2022-10-17T17:59:16.950Z,16.20
2022-10-17T18:01:43.748Z,16.20
2022-10-17T18:04:11.798Z,16.10
2022-10-17T18:06:39.378Z,16.10
2022-10-17T18:09:07.609Z,16.10
2022-10-17T18:11:35.172Z,16.10
2022-10-17T18:14:04.693Z,16.10
2022-10-17T18:16:33.184Z,16.10
2022-10-17T18:19:06.711Z,16.10
2022-10-17T18:21:34.607Z,16.10
2022-10-17T18:24:02.045Z,16.10
2022-10-17T18:26:28.963Z,16.10
2022-10-17T18:28:56.697Z,16.10
2022-10-17T18:31:28.184Z,16.10
2022-10-17T18:33:57.242Z,16.10
2022-10-17T18:36:26.040Z,16.00
2022-10-17T18:38:54.124Z,16.00
2022-10-17T18:41:22.874Z,16.00
2022-10-17T18:43:50.666Z,16.00
2022-10-17T18:46:40.629Z,15.90
2022-10-17T18:49:18.982Z,16.00
2022-10-17T18:51:46.598Z,16.00
2022-10-17T18:54:20.589Z,16.00
2022-10-17T18:56:52.084Z,15.90
2022-10-17T18:59:19.757Z,15.90
2022-10-17T19:01:47.147Z,15.90
2022-10-17T19:04:14.261Z,15.80
2022-10-17T19:06:41.190Z,15.90
2022-10-17T19:09:10.102Z,15.80
2022-10-17T19:11:38.140Z,15.80
2022-10-17T19:14:13.394Z,15.70
2022-10-17T19:16:44.429Z,15.70
2022-10-17T19:19:22.870Z,15.60
2022-10-17T19:21:49.740Z,15.60
2022-10-17T19:24:22.338Z,15.60
2022-10-17T19:26:50.722Z,15.60
2022-10-17T19:29:18.172Z,15.60
2022-10-17T19:31:45.908Z,15.50
2022-10-17T19:34:14.076Z,15.50
2022-10-17T19:36:41.480Z,15.50
2022-10-17T19:39:12.279Z,15.50
2022-10-17T19:41:43.715Z,15.60
2022-10-17T19:44:10.964Z,15.60
2022-10-17T19:46:38.641Z,15.60
2022-10-17T19:49:06.416Z,15.70
2022-10-17T19:51:33.403Z,15.70
2022-10-17T19:54:01.612Z,15.80
2022-10-17T19:56:31.633Z,15.80
2022-10-17T19:58:58.797Z,15.80
2022-10-17T20:01:31.451Z,15.70
2022-10-17T20:03:58.178Z,15.70
2022-10-17T20:06:25.085Z,15.70
2022-10-17T20:08:52.255Z,15.70
2022-10-17T20:11:21.903Z,15.70
2022-10-17T20:13:49.102Z,15.60
2022-10-17T20:16:21.185Z,15.70
2022-10-17T20:18:49.928Z,15.70
2022-10-17T20:21:20.176Z,15.60
2022-10-17T20:23:47.923Z,15.70
2022-10-17T20:26:38.729Z,15.60
2022-10-17T20:29:18.027Z,15.70
2022-10-17T20:31:46.314Z,15.70
2022-10-17T20:34:15.862Z,15.70
2022-10-17T20:36:43.290Z,15.80
2022-10-17T20:39:12.089Z,15.80
2022-10-17T20:41:38.979Z,15.80
2022-10-17T20:44:07.035Z,15.80
2022-10-17T20:46:37.609Z,15.80
2022-10-17T20:49:07.495Z,15.80
2022-10-17T20:51:35.397Z,15.70
2022-10-17T20:54:02.881Z,15.80
2022-10-17T20:56:31.556Z,15.70
2022-10-17T20:59:07.151Z,15.70
2022-10-17T21:01:35.718Z,15.70
2022-10-17T21:04:27.149Z,15.70
2022-10-17T21:06:53.819Z,15.70
2022-10-17T21:09:21.137Z,15.60
2022-10-17T21:11:54.139Z,15.60
2022-10-17T21:14:21.384Z,15.60
2022-10-17T21:16:48.341Z,15.60
2022-10-17T21:19:16.033Z,15.60
2022-10-17T21:21:45.579Z,15.50
2022-10-17T21:24:17.932Z,15.60
2022-10-17T21:26:46.238Z,15.50
2022-10-17T21:29:13.756Z,15.60
2022-10-17T21:31:42.548Z,15.60
2022-10-17T21:34:12.891Z,15.50
2022-10-17T21:36:39.595Z,15.50
2022-10-17T21:41:33.493Z,15.30
2022-10-17T21:44:02.720Z,15.30
2022-10-17T21:46:30.255Z,15.20
2022-10-17T21:48:59.368Z,15.20
2022-10-17T21:51:27.021Z,15.20
2022-10-17T21:53:55.175Z,15.10
2022-10-17T21:56:24.668Z,15.10
2022-10-17T21:58:51.739Z,15.00
2022-10-17T22:01:23.969Z,15.00
2022-10-17T22:03:51.858Z,15.00
2022-10-17T22:09:16.514Z,15.00
2022-10-17T22:11:46.659Z,14.90
2022-10-17T22:14:16.407Z,14.90
2022-10-17T22:16:45.285Z,14.80
2022-10-17T22:19:14.452Z,14.80
2022-10-17T22:21:41.298Z,14.80
2022-10-17T22:24:12.281Z,14.70
2022-10-17T22:26:39.094Z,14.70
2022-10-17T22:29:07.528Z,14.70
2022-10-17T22:31:34.793Z,14.70
2022-10-17T22:34:01.502Z,14.70
2022-10-17T22:36:28.491Z,14.70
2022-10-17T22:38:55.298Z,14.70
2022-10-17T22:41:22.010Z,14.60
2022-10-17T22:43:48.799Z,14.60
2022-10-17T22:46:18.623Z,14.70
2022-10-17T22:48:45.659Z,14.60
2022-10-17T22:51:12.789Z,14.60
2022-10-17T22:53:40.050Z,14.60
2022-10-17T22:56:10.801Z,14.60
2022-10-17T22:58:38.052Z,14.60
2022-10-17T23:01:06.486Z,14.60
2022-10-17T23:03:34.042Z,14.50
2022-10-17T23:06:01.251Z,14.50
2022-10-17T23:08:28.571Z,14.40
2022-10-17T23:10:55.332Z,14.40
2022-10-17T23:13:22.553Z,14.40
2022-10-17T23:15:54.208Z,14.40
2022-10-17T23:18:22.285Z,14.40
2022-10-17T23:20:49.619Z,14.40
2022-10-17T23:23:17.064Z,14.40
2022-10-17T23:25:44.802Z,14.40
2022-10-17T23:28:11.611Z,14.40
2022-10-17T23:30:39.246Z,14.30
2022-10-17T23:33:06.695Z,14.30
2022-10-17T23:35:34.270Z,14.30
2022-10-17T23:38:01.023Z,14.30
2022-10-17T23:40:28.257Z,14.30
2022-10-17T23:42:55.106Z,14.30
2022-10-17T23:45:22.070Z,14.30
2022-10-17T23:47:48.799Z,14.20
2022-10-17T23:50:16.478Z,14.20
2022-10-17T23:52:43.245Z,14.20
2022-10-17T23:55:10.458Z,14.20
2022-10-17T23:57:37.177Z,14.20
